Map

Track Data

SID SEASON NUMBER BASIN SUBBASIN NAME ISO_TIME NATURE LAT LON WMO_WIND WMO_PRES WMO_AGENCY TRACK_TYPE DIST2LAND LANDFALL IFLAG USA_AGENCY USA_ATCF_ID USA_LAT USA_LON USA_RECORD USA_STATUS USA_WIND USA_PRES USA_SSHS USA_R34_NE USA_R34_SE USA_R34_SW USA_R34_NW USA_R50_NE USA_R50_SE USA_R50_SW USA_R50_NW USA_R64_NE USA_R64_SE USA_R64_SW USA_R64_NW USA_POCI USA_ROCI USA_RMW USA_EYE TOKYO_LAT TOKYO_LON TOKYO_GRADE TOKYO_WIND TOKYO_PRES TOKYO_R50_DIR TOKYO_R50_LONG TOKYO_R50_SHORT TOKYO_R30_DIR TOKYO_R30_LONG TOKYO_R30_SHORT TOKYO_LAND CMA_LAT CMA_LON CMA_CAT CMA_WIND CMA_PRES HKO_LAT HKO_LON HKO_CAT HKO_WIND HKO_PRES NEWDELHI_LAT NEWDELHI_LON NEWDELHI_GRADE NEWDELHI_WIND NEWDELHI_PRES NEWDELHI_CI NEWDELHI_DP NEWDELHI_POCI REUNION_LAT REUNION_LON REUNION_TYPE REUNION_WIND REUNION_PRES REUNION_TNUM REUNION_CI REUNION_RMW REUNION_R34_NE REUNION_R34_SE REUNION_R34_SW REUNION_R34_NW REUNION_R50_NE REUNION_R50_SE REUNION_R50_SW REUNION_R50_NW REUNION_R64_NE REUNION_R64_SE REUNION_R64_SW REUNION_R64_NW BOM_LAT BOM_LON BOM_TYPE BOM_WIND BOM_PRES BOM_TNUM BOM_CI BOM_RMW BOM_R34_NE BOM_R34_SE BOM_R34_SW BOM_R34_NW BOM_R50_NE BOM_R50_SE BOM_R50_SW BOM_R50_NW BOM_R64_NE BOM_R64_SE BOM_R64_SW BOM_R64_NW BOM_ROCI BOM_POCI BOM_EYE BOM_POS_METHOD BOM_PRES_METHOD NADI_LAT NADI_LON NADI_CAT NADI_WIND NADI_PRES WELLINGTON_LAT WELLINGTON_LON WELLINGTON_WIND WELLINGTON_PRES DS824_LAT DS824_LON DS824_STAGE DS824_WIND DS824_PRES TD9636_LAT TD9636_LON TD9636_STAGE TD9636_WIND TD9636_PRES TD9635_LAT TD9635_LON TD9635_WIND TD9635_PRES TD9635_ROCI NEUMANN_LAT NEUMANN_LON NEUMANN_CLASS NEUMANN_WIND NEUMANN_PRES MLC_LAT MLC_LON MLC_CLASS MLC_WIND MLC_PRES USA_GUST BOM_GUST BOM_GUST_PER REUNION_GUST REUNION_GUST_PER USA_SEAHGT USA_SEARAD_NE USA_SEARAD_SE USA_SEARAD_SW USA_SEARAD_NW STORM_SPEED STORM_DIR
2022244N16267 2022 57 EP MM KAY 2022-09-01 00:00:00 NR 15.5000 -93.5000 PROVISIONAL 24 24 O_____________ nhc_working_bt EP122022 15.5000 -93.5000 DB 15 -3 6 189
2022244N16267 2022 57 EP MM KAY 2022-09-01 03:00:00 NR 15.2100 -93.5300 PROVISIONAL 46 46 P_____________ EP122022 15.2100 -93.5300 DB 15 -3 6 189
2022244N16267 2022 57 EP MM KAY 2022-09-01 06:00:00 NR 14.9000 -93.6000 PROVISIONAL 77 77 O_____________ nhc_working_bt EP122022 14.9000 -93.6000 DB 15 -3 7 197
2022244N16267 2022 57 EP MM KAY 2022-09-01 09:00:00 NR 14.5575 -93.7350 PROVISIONAL 108 108 P_____________ EP122022 14.5575 -93.7350 DB 17 -3 8 203
2022244N16267 2022 57 EP MM KAY 2022-09-01 12:00:00 NR 14.2000 -93.9000 PROVISIONAL 155 155 O_____________ nhc_working_bt EP122022 14.2000 -93.9000 DB 20 1008 -3 8 203
2022244N16267 2022 57 EP MM KAY 2022-09-01 15:00:00 NR 13.8425 -94.0424 PROVISIONAL 194 194 P_____________ EP122022 13.8425 -94.0424 DB 20 1008 -3 8 203
2022244N16267 2022 57 EP MM KAY 2022-09-01 18:00:00 NR 13.5000 -94.2000 PROVISIONAL 233 233 O_____________ nhc_working_bt EP122022 13.5000 -94.2000 DB 20 1008 -3 7 205
2022244N16267 2022 57 EP MM KAY 2022-09-01 21:00:00 NR 13.1699 -94.3625 PROVISIONAL 271 271 P_____________ EP122022 13.1699 -94.3625 DB 20 1008 -3 7 213
2022244N16267 2022 57 EP MM KAY 2022-09-02 00:00:00 NR 12.9000 -94.6000 PROVISIONAL 310 310 O_____________ nhc_working_bt EP122022 12.9000 -94.6000 DB 20 1008 -3 1009 180 60 8 234
2022244N16267 2022 57 EP MM KAY 2022-09-02 03:00:00 NR 12.7127 -95.0075 PROVISIONAL 357 352 P_____________ EP122022 12.7127 -95.0075 DB 20 1008 -3 1009 180 60 8 249
2022244N16267 2022 57 EP MM KAY 2022-09-02 06:00:00 NR 12.6000 -95.4000 PROVISIONAL 357 355 O_____________ nhc_working_bt EP122022 12.6000 -95.4000 DB 20 1008 -3 1009 180 60 6 252
2022244N16267 2022 57 EP MM KAY 2022-09-02 09:00:00 NR 12.5274 -95.5874 PROVISIONAL 363 360 P_____________ EP122022 12.5274 -95.5874 DB 20 1008 -3 1009 180 60 3 251
2022244N16267 2022 57 EP MM KAY 2022-09-02 12:00:00 NR 12.5000 -95.7000 PROVISIONAL 360 357 O_____________ nhc_working_bt EP122022 12.5000 -95.7000 DB 20 1008 -3 1009 180 60 3 262
2022244N16267 2022 57 EP MM KAY 2022-09-02 15:00:00 NR 12.4925 -95.8500 PROVISIONAL 357 353 P_____________ EP122022 12.4925 -95.8500 DB 20 1008 -3 1009 180 60 3 270
2022244N16267 2022 57 EP MM KAY 2022-09-02 18:00:00 NR 12.5000 -96.0000 PROVISIONAL 353 351 O_____________ nhc_working_bt EP122022 12.5000 -96.0000 DB 20 1008 -3 1009 180 60 3 270
2022244N16267 2022 57 EP MM KAY 2022-09-02 21:00:00 NR 12.4925 -96.1425 PROVISIONAL 351 348 P_____________ EP122022 12.4925 -96.1425 DB 22 1007 -3 1009 190 60 3 270
2022244N16267 2022 57 EP MM KAY 2022-09-03 00:00:00 NR 12.5000 -96.3000 PROVISIONAL 348 347 O_____________ nhc_working_bt EP122022 12.5000 -96.3000 DB 25 1007 -3 1009 200 60 35 3 278
2022244N16267 2022 57 EP MM KAY 2022-09-03 03:00:00 NR 12.5349 -96.4700 PROVISIONAL 347 335 P_____________ EP122022 12.5349 -96.4700 DB 25 1007 -3 1009 200 60 4 284
2022244N16267 2022 57 EP MM KAY 2022-09-03 06:00:00 NR 12.6000 -96.7000 PROVISIONAL 336 326 O_____________ nhc_working_bt EP122022 12.6000 -96.7000 DB 25 1007 -3 1009 200 60 35 6 285
2022244N16267 2022 57 EP MM KAY 2022-09-03 09:00:00 NR 12.6775 -97.0201 PROVISIONAL 327 322 P_____________ EP122022 12.6775 -97.0201 DB 25 1006 -3 1008 200 60 7 286
2022244N16267 2022 57 EP MM KAY 2022-09-03 12:00:00 NR 12.8000 -97.4000 PROVISIONAL 325 314 O_____________ nhc_working_bt EP122022 12.8000 -97.4000 DB 25 1006 -3 1008 200 60 35 8 292
2022244N16267 2022 57 EP MM KAY 2022-09-03 15:00:00 NR 12.9850 -97.7925 PROVISIONAL 318 312 P_____________ EP122022 12.9850 -97.7925 DB 25 1006 -3 1008 200 60 9 297
2022244N16267 2022 57 EP MM KAY 2022-09-03 18:00:00 NR 13.2000 -98.2000 PROVISIONAL 316 300 O_____________ nhc_working_bt EP122022 13.2000 -98.2000 DB 25 1006 -3 1008 200 60 35 9 299
2022244N16267 2022 57 EP MM KAY 2022-09-03 21:00:00 NR 13.4149 -98.5925 PROVISIONAL 303 293 P_____________ EP122022 13.4149 -98.5925 DB 25 1006 -3 1008 185 60 9 297
2022244N16267 2022 57 EP MM KAY 2022-09-04 00:00:00 NR 13.6000 -99.0000 PROVISIONAL 298 298 O_____________ nhc_working_bt EP122022 13.6000 -99.0000 DB 25 1006 -3 1008 170 60 35 9 290
2022244N16267 2022 57 EP MM KAY 2022-09-04 03:00:00 NR 13.7074 -99.4352 PROVISIONAL 303 303 P_____________ EP122022 13.7074 -99.4352 DB 27 1006 -3 1008 175 60 9 283
2022244N16267 2022 57 EP MM KAY 2022-09-04 06:00:00 NR 13.8000 -99.9000 PROVISIONAL 312 312 O_____________ nhc_working_bt EP122022 13.8000 -99.9000 DB 30 1006 -3 1009 180 60 40 9 283
2022244N16267 2022 57 EP MM KAY 2022-09-04 09:00:00 NR 13.9199 -100.385 PROVISIONAL 322 317 P_____________ EP122022 13.9199 -100.385 DB 30 1005 -3 1008 180 60 10 284
2022244N16267 2022 57 EP MM KAY 2022-09-04 12:00:00 TS 14.0333 -100.867 PROVISIONAL 328 317 O_____________ nhc_working_bt EP122022 14.1000 -100.900 TD 30 1005 -1 1008 180 60 40 11 293
2022244N16267 2022 57 EP MM KAY 2022-09-04 15:00:00 TS 14.3376 -101.411 PROVISIONAL 324 303 P_____________ EP122022 14.3773 -101.428 TD 32 1004 -1 1007 180 60 13 301
2022244N16267 2022 57 EP MM KAY 2022-09-04 18:00:00 TS 14.7000 -102.000 PROVISIONAL 306 292 O_____________ nhc_working_bt EP122022 14.7000 -102.000 TS 35 1004 0 100 1007 180 60 45 12 120 14 302
2022244N16267 2022 57 EP MM KAY 2022-09-04 21:00:00 TS 15.0731 -102.625 PROVISIONAL 293 293 P_____________ EP122022 15.0298 -102.620 TS 35 1003 0 100 1006 180 60 12 150 14 298
2022244N16267 2022 57 EP MM KAY 2022-09-05 00:00:00 TS 15.3667 -103.300 PROVISIONAL 299 299 O_____________ nhc_working_bt EP122022 15.3000 -103.300 TS 35 1002 0 100 60 1006 180 60 45 12 180 60 15 288
2022244N16267 2022 57 EP MM KAY 2022-09-05 03:00:00 TS 15.5118 -104.058 PROVISIONAL 316 316 P_____________ EP122022 15.4451 -104.058 TS 40 1000 0 140 80 1006 190 60 12 180 75 15 278
2022244N16267 2022 57 EP MM KAY 2022-09-05 06:00:00 TS 15.5667 -104.800 PROVISIONAL 332 332 O_____________ nhc_working_bt EP122022 15.5000 -104.800 TS 45 998 0 180 100 90 1006 200 60 55 12 180 90 13 275
2022244N16267 2022 57 EP MM KAY 2022-09-05 09:00:00 TS 15.6298 -105.445 PROVISIONAL 363 363 P_____________ EP122022 15.5148 -105.445 TS 50 994 0 180 100 90 25 1006 200 55 12 180 90 12 273
2022244N16267 2022 57 EP MM KAY 2022-09-05 12:00:00 TS 15.6333 -106.000 PROVISIONAL 402 402 O_____________ nhc_working_bt EP122022 15.5000 -106.000 TS 55 990 0 180 100 90 50 1006 200 50 60 12 180 90 60 10 263
2022244N16267 2022 57 EP MM KAY 2022-09-05 15:00:00 TS 15.5031 -106.480 PROVISIONAL 447 447 P_____________ EP122022 15.4698 -106.480 TS 60 986 0 165 115 95 50 1006 200 37 12 180 135 90 9 257
2022244N16267 2022 57 EP MM KAY 2022-09-05 18:00:00 TS 15.4333 -106.900 PROVISIONAL 480 475 O_____________ nhc_working_bt EP122022 15.5000 -106.900 HU 65 983 1 150 130 80 100 50 50 25 1006 200 25 65 12 180 180 120 120 8 277
2022244N16267 2022 57 EP MM KAY 2022-09-05 21:00:00 TS 15.5965 -107.305 PROVISIONAL 482 476 P_____________ EP122022 15.6398 -107.300 HU 67 981 1 150 130 80 100 50 50 25 1007 215 22 12 180 180 120 120 9 301
2022244N16267 2022 57 EP MM KAY 2022-09-06 00:00:00 TS 15.9000 -107.700 PROVISIONAL 480 477 O_____________ nhc_working_bt EP122022 15.9000 -107.700 HU 70 980 1 150 130 80 100 50 50 25 25 1008 230 20 85 12 180 180 120 120 10 310
2022244N16267 2022 57 EP MM KAY 2022-09-06 03:00:00 TS 16.2290 -108.097 PROVISIONAL 484 476 P_____________ EP122022 16.2624 -108.135 HU 72 978 1 150 135 80 100 50 50 25 25 1008 240 20 12 195 195 135 135 11 312
2022244N16267 2022 57 EP MM KAY 2022-09-06 06:00:00 TS 16.6333 -108.533 PROVISIONAL 484 483 O_____________ nhc_working_bt EP122022 16.7000 -108.600 HU 75 977 1 150 140 80 100 50 50 40 25 25 20 1008 250 20 90 12 210 210 150 150 13 314
2022244N16267 2022 57 EP MM KAY 2022-09-06 09:00:00 TS 17.1116 -109.047 PROVISIONAL 486 486 P_____________ EP122022 17.1499 -109.085 HU 75 977 1 150 140 80 100 50 50 40 25 25 20 1008 250 20 12 270 240 165 150 14 313
2022244N16267 2022 57 EP MM KAY 2022-09-06 12:00:00 TS 17.6000 -109.600 PROVISIONAL 508 508 O_____________ nhc_working_bt EP122022 17.6000 -109.600 HU 75 977 1 150 140 80 100 50 50 40 25 25 20 1008 250 20 90 12 330 270 180 150 14 310
2022244N16267 2022 57 EP MM KAY 2022-09-06 15:00:00 TS 18.0276 -110.178 PROVISIONAL 542 507 P_____________ EP122022 18.0226 -110.172 HU 75 977 1 150 140 80 100 50 50 40 25 25 20 1008 250 20 12 330 315 225 180 13 307
2022244N16267 2022 57 EP MM KAY 2022-09-06 18:00:00 TS 18.4000 -110.700 PROVISIONAL 508 481 O_____________ nhc_working_bt EP122022 18.4000 -110.700 HU 75 978 1 150 140 80 100 50 50 40 25 25 20 1008 250 20 90 12 330 360 270 210 11 308
2022244N16267 2022 57 EP MM KAY 2022-09-06 21:00:00 TS 18.7073 -111.103 PROVISIONAL 483 459 P_____________ EP122022 18.7073 -111.103 HU 77 976 1 165 140 80 135 60 50 55 25 25 20 1008 275 20 12 330 420 300 240 9 312
2022244N16267 2022 57 EP MM KAY 2022-09-07 00:00:00 TS 19.0000 -111.400 PROVISIONAL 459 435 O_____________ nhc_working_bt EP122022 19.0000 -111.400 HU 80 975 1 180 140 80 170 70 50 30 70 25 25 20 1008 300 20 90 12 330 480 330 270 8 322
2022244N16267 2022 57 EP MM KAY 2022-09-07 03:00:00 TS 19.3273 -111.608 PROVISIONAL 435 403 P_____________ EP122022 19.3273 -111.608 HU 80 975 1 190 150 80 160 70 50 30 70 25 25 20 1009 300 20 12 345 480 330 270 8 332
2022244N16267 2022 57 EP MM KAY 2022-09-07 06:00:00 TS 19.7000 -111.800 PROVISIONAL 403 375 O_____________ nhc_working_bt EP122022 19.7000 -111.800 HU 80 975 1 200 160 80 150 70 50 30 70 25 25 20 1010 300 20 100 12 360 480 330 270 9 330
2022244N16267 2022 57 EP MM KAY 2022-09-07 09:00:00 TS 20.1351 -112.100 PROVISIONAL 381 357 P_____________ EP122022 20.1351 -112.100 HU 85 971 2 200 160 80 150 70 50 30 70 25 25 20 1010 300 20 12 360 495 330 270 11 328
2022244N16267 2022 57 EP MM KAY 2022-09-07 12:00:00 TS 20.6000 -112.400 PROVISIONAL 357 342 O_____________ nhc_working_bt EP122022 20.6000 -112.400 HU 90 967 2 200 160 80 150 70 50 30 70 25 25 20 1010 300 20 110 12 360 510 330 270 10 331
2022244N16267 2022 57 EP MM KAY 2022-09-07 15:00:00 TS 21.0350 -112.638 PROVISIONAL 342 327 P_____________ EP122022 21.0350 -112.638 HU 90 969 2 200 160 80 150 70 55 35 70 27 27 25 1010 300 20 12 360 510 345 285 10 338
2022244N16267 2022 57 EP MM KAY 2022-09-07 18:00:00 TS 21.5000 -112.800 PROVISIONAL 327 298 O_____________ nhc_working_bt EP122022 21.5000 -112.800 HU 90 971 2 200 160 80 150 70 60 40 70 30 30 20 30 1010 300 20 110 12 360 510 360 300 10 348
2022244N16267 2022 57 EP MM KAY 2022-09-07 21:00:00 TS 22.0199 -112.858 PROVISIONAL 298 240 P_____________ EP122022 22.0199 -112.858 HU 85 971 2 200 160 80 150 70 60 40 70 30 30 20 30 1009 300 20 12 360 510 360 300 11 355
2022244N16267 2022 57 EP MM KAY 2022-09-08 00:00:00 TS 22.6000 -112.900 PROVISIONAL 240 189 O_____________ nhc_working_bt EP122022 22.6000 -112.900 HU 80 972 1 200 160 80 150 70 60 40 70 30 30 20 30 1009 300 20 100 12 360 510 360 300 12 352
2022244N16267 2022 57 EP MM KAY 2022-09-08 03:00:00 TS 23.2350 -113.035 PROVISIONAL 189 142 P_____________ EP122022 23.2350 -113.035 HU 77 972 1 200 170 105 140 65 60 35 65 30 30 20 30 1009 300 22 12 360 510 360 300 13 348
2022244N16267 2022 57 EP MM KAY 2022-09-08 06:00:00 TS 23.9000 -113.200 PROVISIONAL 142 116 O_____________ nhc_working_bt EP122022 23.9000 -113.200 HU 75 972 1 200 180 130 130 60 60 30 60 30 30 20 30 1010 300 25 90 12 360 510 360 300 13 348
2022244N16267 2022 57 EP MM KAY 2022-09-08 09:00:00 TS 24.5424 -113.328 PROVISIONAL 116 113 P_____________ EP122022 24.5424 -113.328 HU 75 973 1 200 180 130 130 60 60 30 60 30 30 20 30 1010 300 25 12 315 495 315 300 13 348
2022244N16267 2022 57 EP MM KAY 2022-09-08 12:00:00 TS 25.2000 -113.500 PROVISIONAL 138 91 O_____________ nhc_working_bt EP122022 25.2000 -113.500 HU 75 974 1 200 180 130 130 60 60 30 60 30 30 20 30 1010 300 25 90 12 270 480 270 300 14 343
2022244N16267 2022 57 EP MM KAY 2022-09-08 15:00:00 TS 25.9001 -113.785 PROVISIONAL 91 44 P_____________ EP122022 25.9001 -113.785 HU 70 978 1 195 185 105 130 60 50 30 50 30 1010 300 25 12 240 420 285 300 15 339
2022244N16267 2022 57 EP MM KAY 2022-09-08 18:00:00 TS 26.6000 -114.100 PROVISIONAL 44 0 O_____________ nhc_working_bt EP122022 26.6000 -114.100 HU 65 982 1 190 190 80 130 60 40 30 40 30 1010 300 25 80 12 210 360 300 300 15 340
2022244N16267 2022 57 EP MM KAY 2022-09-08 21:00:00 TS 27.2722 -114.328 PROVISIONAL 0 0 P_____________ EP122022 27.2722 -114.328 HU 60 983 0 185 185 80 130 60 40 30 40 1008 300 25 12 195 390 285 300 14 341
2022244N16267 2022 57 EP MM KAY 2022-09-09 00:00:00 TS 27.9000 -114.600 PROVISIONAL 11 11 O_____________ nhc_working_bt EP122022 27.9000 -114.600 TS 55 985 0 180 180 80 130 60 40 30 40 1006 300 25 65 12 180 420 270 300 14 333
2022244N16267 2022 57 EP MM KAY 2022-09-09 03:00:00 TS 28.4802 -115.027 PROVISIONAL 73 53 P_____________ EP122022 28.4802 -115.027 TS 52 986 0 175 190 80 130 60 40 35 50 1006 300 27 12 180 405 255 255 14 324
2022244N16267 2022 57 EP MM KAY 2022-09-09 06:00:00 TS 29.0000 -115.500 PROVISIONAL 53 44 O_____________ nhc_working_bt EP122022 29.0000 -115.500 TS 50 987 0 170 200 80 130 60 40 40 60 1006 300 30 60 12 180 390 240 210 12 323
2022244N16267 2022 57 EP MM KAY 2022-09-09 09:00:00 TS 29.4646 -115.886 PROVISIONAL 38 36 P_____________ EP122022 29.4646 -115.886 TS 47 989 0 170 200 80 130 1006 300 30 12 165 375 210 165 11 322
2022244N16267 2022 57 EP MM KAY 2022-09-09 12:00:00 TS 29.9000 -116.300 PROVISIONAL 48 48 O_____________ nhc_working_bt EP122022 29.9000 -116.300 TS 45 991 0 170 200 80 130 1006 300 30 55 12 150 360 180 120 12 319
2022244N16267 2022 57 EP MM KAY 2022-09-09 15:00:00 TS 30.3875 -116.827 PROVISIONAL 76 76 P_____________ EP122022 30.3875 -116.827 TS 42 993 0 160 175 90 1006 300 45 12 150 360 180 120 13 314
2022244N16267 2022 57 EP MM KAY 2022-09-09 18:00:00 TS 30.8000 -117.400 PROVISIONAL 105 105 O_____________ nhc_working_bt EP122022 30.8000 -117.400 TS 40 995 0 150 150 50 1006 300 60 50 12 150 360 180 120 12 304
2022244N16267 2022 57 EP MM KAY 2022-09-09 21:00:00 TS 31.0503 -117.958 PROVISIONAL 135 135 P_____________ EP122022 31.0503 -117.958 TS 37 995 0 135 105 1006 300 60 12 112 285 180 90 10 293
2022244N16267 2022 57 EP MM KAY 2022-09-10 00:00:00 TS 31.2000 -118.500 PROVISIONAL 175 O_____________ nhc_working_bt EP122022 31.2000 -118.500 TS 35 996 0 120 60 1006 300 60 45 12 75 210 180 60 10 288

About IBTrACS Database

This database is a web-friendly format of International Best Track Archive for Climate Stewardship (IBTrACS), a global best track data archive curated by NOAA dating back to 1842.

Updated: 2022-09-30